sensor_id;sensor_type;location;lat;lon;timestamp;P1;durP1;ratioP1;P2;durP2;ratioP2
74926;SDS011;63488;48.092;-1.640;2023-03-31T00:01:06;32.22;;;6.45;;
74926;SDS011;63488;48.092;-1.640;2023-03-31T00:03:31;37.55;;;7.13;;
74926;SDS011;63488;48.092;-1.640;2023-03-31T00:05:58;35.17;;;7.07;;
74926;SDS011;63488;48.092;-1.640;2023-03-31T00:08:24;40.08;;;8.18;;
74926;SDS011;63488;48.092;-1.640;2023-03-31T00:10:56;35.08;;;7.55;;
74926;SDS011;63488;48.092;-1.640;2023-03-31T00:13:22;42.80;;;8.07;;
74926;SDS011;63488;48.092;-1.640;2023-03-31T00:15:47;31.15;;;6.43;;
74926;SDS011;63488;48.092;-1.640;2023-03-31T00:18:13;38.63;;;7.53;;
74926;SDS011;63488;48.092;-1.640;2023-03-31T00:20:38;32.33;;;7.60;;
74926;SDS011;63488;48.092;-1.640;2023-03-31T00:23:03;39.15;;;6.70;;
74926;SDS011;63488;48.092;-1.640;2023-03-31T00:25:30;36.35;;;8.15;;
74926;SDS011;63488;48.092;-1.640;2023-03-31T00:27:56;41.90;;;7.63;;
74926;SDS011;63488;48.092;-1.640;2023-03-31T00:30:22;36.97;;;7.25;;
74926;SDS011;63488;48.092;-1.640;2023-03-31T00:32:47;38.63;;;7.47;;
74926;SDS011;63488;48.092;-1.640;2023-03-31T00:35:13;39.70;;;7.85;;
74926;SDS011;63488;48.092;-1.640;2023-03-31T00:37:38;41.60;;;7.78;;
74926;SDS011;63488;48.092;-1.640;2023-03-31T00:40:04;43.58;;;9.57;;
74926;SDS011;63488;48.092;-1.640;2023-03-31T00:42:39;37.03;;;7.40;;
74926;SDS011;63488;48.092;-1.640;2023-03-31T00:47:31;31.58;;;7.38;;
74926;SDS011;63488;48.092;-1.640;2023-03-31T00:49:56;35.17;;;6.93;;
74926;SDS011;63488;48.092;-1.640;2023-03-31T00:52:23;38.00;;;8.35;;
74926;SDS011;63488;48.092;-1.640;2023-03-31T00:54:53;36.55;;;7.18;;
74926;SDS011;63488;48.092;-1.640;2023-03-31T00:57:20;39.95;;;7.05;;
74926;SDS011;63488;48.092;-1.640;2023-03-31T00:59:48;43.38;;;8.68;;
74926;SDS011;63488;48.092;-1.640;2023-03-31T01:02:15;39.47;;;8.10;;
74926;SDS011;63488;48.092;-1.640;2023-03-31T01:04:45;37.97;;;7.05;;
74926;SDS011;63488;48.092;-1.640;2023-03-31T01:07:19;43.75;;;7.63;;
74926;SDS011;63488;48.092;-1.640;2023-03-31T01:09:47;35.00;;;8.15;;
74926;SDS011;63488;48.092;-1.640;2023-03-31T01:12:12;37.92;;;7.10;;
74926;SDS011;63488;48.092;-1.640;2023-03-31T01:14:39;43.20;;;7.47;;
74926;SDS011;63488;48.092;-1.640;2023-03-31T01:17:05;39.20;;;7.40;;
74926;SDS011;63488;48.092;-1.640;2023-03-31T01:24:50;29.30;;;6.10;;
74926;SDS011;63488;48.092;-1.640;2023-03-31T01:28:01;25.40;;;5.07;;
74926;SDS011;63488;48.092;-1.640;2023-03-31T01:35:52;30.40;;;6.32;;
74926;SDS011;63488;48.092;-1.640;2023-03-31T01:51:36;34.92;;;6.88;;
74926;SDS011;63488;48.092;-1.640;2023-03-31T01:58:57;37.60;;;7.45;;
74926;SDS011;63488;48.092;-1.640;2023-03-31T02:03:56;41.25;;;7.60;;
74926;SDS011;63488;48.092;-1.640;2023-03-31T02:06:24;33.15;;;7.13;;
74926;SDS011;63488;48.092;-1.640;2023-03-31T02:08:53;32.95;;;7.22;;
74926;SDS011;63488;48.092;-1.640;2023-03-31T02:11:19;35.00;;;6.47;;
74926;SDS011;63488;48.092;-1.640;2023-03-31T02:13:46;36.10;;;6.35;;
74926;SDS011;63488;48.092;-1.640;2023-03-31T02:16:15;34.63;;;7.55;;
74926;SDS011;63488;48.092;-1.640;2023-03-31T02:21:08;27.90;;;5.97;;
74926;SDS011;63488;48.092;-1.640;2023-03-31T02:23:35;29.42;;;6.43;;
74926;SDS011;63488;48.092;-1.640;2023-03-31T02:26:09;36.60;;;6.30;;
74926;SDS011;63488;48.092;-1.640;2023-03-31T02:28:36;32.13;;;6.20;;
74926;SDS011;63488;48.092;-1.640;2023-03-31T02:33:35;35.30;;;6.78;;
74926;SDS011;63488;48.092;-1.640;2023-03-31T02:36:01;29.70;;;6.32;;
74926;SDS011;63488;48.092;-1.640;2023-03-31T02:38:27;28.65;;;6.10;;
74926;SDS011;63488;48.092;-1.640;2023-03-31T02:40:52;30.77;;;5.90;;
74926;SDS011;63488;48.092;-1.640;2023-03-31T02:43:17;32.70;;;5.95;;
74926;SDS011;63488;48.092;-1.640;2023-03-31T02:45:47;30.50;;;6.30;;
74926;SDS011;63488;48.092;-1.640;2023-03-31T02:48:17;28.20;;;5.30;;
74926;SDS011;63488;48.092;-1.640;2023-03-31T02:50:52;24.73;;;5.97;;
74926;SDS011;63488;48.092;-1.640;2023-03-31T03:03:40;33.50;;;6.20;;
74926;SDS011;63488;48.092;-1.640;2023-03-31T03:08:52;27.15;;;5.40;;
74926;SDS011;63488;48.092;-1.640;2023-03-31T03:11:23;29.02;;;5.15;;
74926;SDS011;63488;48.092;-1.640;2023-03-31T03:13:50;22.33;;;6.25;;
74926;SDS011;63488;48.092;-1.640;2023-03-31T03:18:43;28.00;;;6.15;;
74926;SDS011;63488;48.092;-1.640;2023-03-31T03:21:09;24.08;;;5.05;;
74926;SDS011;63488;48.092;-1.640;2023-03-31T03:23:34;22.55;;;5.30;;
74926;SDS011;63488;48.092;-1.640;2023-03-31T03:25:59;27.88;;;5.45;;
74926;SDS011;63488;48.092;-1.640;2023-03-31T03:28:25;26.48;;;4.78;;
74926;SDS011;63488;48.092;-1.640;2023-03-31T03:30:51;24.10;;;4.72;;
74926;SDS011;63488;48.092;-1.640;2023-03-31T03:33:17;25.60;;;5.32;;
74926;SDS011;63488;48.092;-1.640;2023-03-31T03:35:42;28.95;;;5.25;;
74926;SDS011;63488;48.092;-1.640;2023-03-31T03:38:08;24.48;;;4.32;;
74926;SDS011;63488;48.092;-1.640;2023-03-31T03:40:33;19.10;;;4.60;;
74926;SDS011;63488;48.092;-1.640;2023-03-31T03:42:59;21.92;;;5.43;;
74926;SDS011;63488;48.092;-1.640;2023-03-31T03:45:24;18.95;;;3.75;;
74926;SDS011;63488;48.092;-1.640;2023-03-31T03:47:49;25.27;;;4.57;;
74926;SDS011;63488;48.092;-1.640;2023-03-31T03:50:15;20.98;;;3.78;;
74926;SDS011;63488;48.092;-1.640;2023-03-31T03:52:40;18.63;;;4.40;;
74926;SDS011;63488;48.092;-1.640;2023-03-31T03:55:06;25.40;;;4.70;;
74926;SDS011;63488;48.092;-1.640;2023-03-31T03:57:31;22.08;;;4.75;;
74926;SDS011;63488;48.092;-1.640;2023-03-31T03:59:56;23.67;;;5.03;;
74926;SDS011;63488;48.092;-1.640;2023-03-31T04:02:22;24.67;;;5.18;;
74926;SDS011;63488;48.092;-1.640;2023-03-31T04:04:47;20.25;;;3.70;;
74926;SDS011;63488;48.092;-1.640;2023-03-31T04:07:13;24.02;;;4.75;;
74926;SDS011;63488;48.092;-1.640;2023-03-31T04:09:38;24.85;;;4.50;;
74926;SDS011;63488;48.092;-1.640;2023-03-31T04:12:03;25.80;;;5.22;;
74926;SDS011;63488;48.092;-1.640;2023-03-31T04:14:29;27.38;;;5.18;;
74926;SDS011;63488;48.092;-1.640;2023-03-31T04:16:54;21.30;;;5.25;;
74926;SDS011;63488;48.092;-1.640;2023-03-31T04:19:20;23.88;;;5.07;;
74926;SDS011;63488;48.092;-1.640;2023-03-31T04:21:49;23.52;;;4.10;;
74926;SDS011;63488;48.092;-1.640;2023-03-31T04:24:23;21.95;;;4.28;;
74926;SDS011;63488;48.092;-1.640;2023-03-31T04:26:55;23.48;;;4.53;;
74926;SDS011;63488;48.092;-1.640;2023-03-31T04:29:21;23.65;;;4.55;;
74926;SDS011;63488;48.092;-1.640;2023-03-31T04:31:47;26.17;;;5.03;;
74926;SDS011;63488;48.092;-1.640;2023-03-31T04:34:14;26.55;;;6.35;;
74926;SDS011;63488;48.092;-1.640;2023-03-31T04:36:40;22.58;;;4.15;;
74926;SDS011;63488;48.092;-1.640;2023-03-31T04:39:07;29.80;;;5.90;;
74926;SDS011;63488;48.092;-1.640;2023-03-31T04:41:35;22.30;;;4.85;;
74926;SDS011;63488;48.092;-1.640;2023-03-31T04:44:00;20.08;;;5.05;;
74926;SDS011;63488;48.092;-1.640;2023-03-31T04:46:25;20.88;;;5.32;;
74926;SDS011;63488;48.092;-1.640;2023-03-31T04:48:51;24.98;;;4.78;;
74926;SDS011;63488;48.092;-1.640;2023-03-31T04:51:17;21.63;;;4.47;;
74926;SDS011;63488;48.092;-1.640;2023-03-31T04:53:44;21.58;;;4.05;;
74926;SDS011;63488;48.092;-1.640;2023-03-31T04:56:09;23.63;;;5.10;;
74926;SDS011;63488;48.092;-1.640;2023-03-31T04:58:35;19.27;;;5.07;;
74926;SDS011;63488;48.092;-1.640;2023-03-31T05:01:00;20.10;;;4.18;;
74926;SDS011;63488;48.092;-1.640;2023-03-31T05:03:25;24.38;;;4.45;;
74926;SDS011;63488;48.092;-1.640;2023-03-31T05:05:51;18.75;;;4.43;;
74926;SDS011;63488;48.092;-1.640;2023-03-31T05:08:16;22.42;;;4.20;;
74926;SDS011;63488;48.092;-1.640;2023-03-31T05:10:42;16.58;;;4.07;;
74926;SDS011;63488;48.092;-1.640;2023-03-31T05:13:10;25.05;;;4.47;;
74926;SDS011;63488;48.092;-1.640;2023-03-31T05:15:36;25.52;;;4.80;;
74926;SDS011;63488;48.092;-1.640;2023-03-31T05:18:02;21.02;;;5.10;;
74926;SDS011;63488;48.092;-1.640;2023-03-31T05:20:27;18.13;;;4.10;;
74926;SDS011;63488;48.092;-1.640;2023-03-31T05:22:53;23.33;;;4.15;;
74926;SDS011;63488;48.092;-1.640;2023-03-31T05:25:18;20.80;;;5.03;;
74926;SDS011;63488;48.092;-1.640;2023-03-31T05:27:44;20.33;;;4.95;;
74926;SDS011;63488;48.092;-1.640;2023-03-31T05:30:11;21.92;;;5.13;;
74926;SDS011;63488;48.092;-1.640;2023-03-31T05:32:37;26.48;;;4.22;;
74926;SDS011;63488;48.092;-1.640;2023-03-31T05:35:02;20.73;;;3.88;;
74926;SDS011;63488;48.092;-1.640;2023-03-31T05:37:27;22.50;;;4.10;;
74926;SDS011;63488;48.092;-1.640;2023-03-31T05:39:53;23.45;;;4.28;;
74926;SDS011;63488;48.092;-1.640;2023-03-31T05:42:18;19.23;;;4.55;;
74926;SDS011;63488;48.092;-1.640;2023-03-31T05:44:44;22.77;;;4.32;;
74926;SDS011;63488;48.092;-1.640;2023-03-31T05:47:09;22.60;;;4.45;;
74926;SDS011;63488;48.092;-1.640;2023-03-31T05:49:34;20.65;;;3.88;;
74926;SDS011;63488;48.092;-1.640;2023-03-31T05:52:00;22.02;;;4.55;;
74926;SDS011;63488;48.092;-1.640;2023-03-31T05:54:26;21.77;;;3.60;;
74926;SDS011;63488;48.092;-1.640;2023-03-31T05:56:51;23.50;;;4.70;;
74926;SDS011;63488;48.092;-1.640;2023-03-31T05:59:17;19.13;;;3.65;;
74926;SDS011;63488;48.092;-1.640;2023-03-31T06:01:42;23.88;;;4.40;;
74926;SDS011;63488;48.092;-1.640;2023-03-31T06:04:08;19.33;;;3.90;;
74926;SDS011;63488;48.092;-1.640;2023-03-31T06:06:33;15.27;;;3.50;;
74926;SDS011;63488;48.092;-1.640;2023-03-31T06:08:59;21.23;;;4.32;;
74926;SDS011;63488;48.092;-1.640;2023-03-31T06:11:24;16.10;;;3.30;;
74926;SDS011;63488;48.092;-1.640;2023-03-31T06:13:50;19.98;;;3.72;;
74926;SDS011;63488;48.092;-1.640;2023-03-31T06:16:15;24.20;;;4.32;;
74926;SDS011;63488;48.092;-1.640;2023-03-31T06:18:41;16.13;;;3.20;;
74926;SDS011;63488;48.092;-1.640;2023-03-31T06:21:07;18.58;;;4.07;;
74926;SDS011;63488;48.092;-1.640;2023-03-31T06:23:33;16.70;;;3.45;;
74926;SDS011;63488;48.092;-1.640;2023-03-31T06:26:00;21.98;;;3.63;;
74926;SDS011;63488;48.092;-1.640;2023-03-31T06:28:26;22.75;;;4.57;;
74926;SDS011;63488;48.092;-1.640;2023-03-31T06:30:58;21.00;;;3.92;;
74926;SDS011;63488;48.092;-1.640;2023-03-31T06:33:23;20.52;;;4.07;;
74926;SDS011;63488;48.092;-1.640;2023-03-31T06:35:49;19.35;;;3.78;;
74926;SDS011;63488;48.092;-1.640;2023-03-31T06:38:14;18.05;;;4.00;;
74926;SDS011;63488;48.092;-1.640;2023-03-31T06:40:40;19.77;;;4.35;;
74926;SDS011;63488;48.092;-1.640;2023-03-31T06:43:06;19.95;;;3.90;;
74926;SDS011;63488;48.092;-1.640;2023-03-31T06:45:31;19.05;;;3.33;;
74926;SDS011;63488;48.092;-1.640;2023-03-31T06:47:57;16.85;;;3.35;;
74926;SDS011;63488;48.092;-1.640;2023-03-31T06:50:22;19.33;;;3.55;;
74926;SDS011;63488;48.092;-1.640;2023-03-31T06:52:47;17.77;;;3.95;;
74926;SDS011;63488;48.092;-1.640;2023-03-31T06:55:16;22.35;;;3.88;;
74926;SDS011;63488;48.092;-1.640;2023-03-31T06:57:42;22.67;;;4.25;;
74926;SDS011;63488;48.092;-1.640;2023-03-31T07:00:07;18.48;;;3.50;;
74926;SDS011;63488;48.092;-1.640;2023-03-31T07:02:33;15.77;;;3.70;;
74926;SDS011;63488;48.092;-1.640;2023-03-31T07:04:58;20.17;;;4.28;;
74926;SDS011;63488;48.092;-1.640;2023-03-31T07:07:24;20.73;;;3.72;;
74926;SDS011;63488;48.092;-1.640;2023-03-31T07:09:49;15.60;;;3.13;;
74926;SDS011;63488;48.092;-1.640;2023-03-31T07:12:14;14.13;;;3.15;;
74926;SDS011;63488;48.092;-1.640;2023-03-31T07:14:40;20.00;;;3.85;;
74926;SDS011;63488;48.092;-1.640;2023-03-31T07:17:05;22.27;;;4.22;;
74926;SDS011;63488;48.092;-1.640;2023-03-31T07:19:31;19.40;;;3.83;;
74926;SDS011;63488;48.092;-1.640;2023-03-31T07:21:56;25.67;;;4.40;;
74926;SDS011;63488;48.092;-1.640;2023-03-31T07:24:21;20.85;;;4.30;;
74926;SDS011;63488;48.092;-1.640;2023-03-31T07:26:47;24.02;;;4.43;;
74926;SDS011;63488;48.092;-1.640;2023-03-31T07:29:12;23.80;;;4.28;;
74926;SDS011;63488;48.092;-1.640;2023-03-31T07:31:37;20.40;;;4.03;;
74926;SDS011;63488;48.092;-1.640;2023-03-31T07:34:03;21.65;;;4.35;;
74926;SDS011;63488;48.092;-1.640;2023-03-31T07:36:28;17.70;;;3.67;;
74926;SDS011;63488;48.092;-1.640;2023-03-31T07:38:54;22.23;;;4.68;;
74926;SDS011;63488;48.092;-1.640;2023-03-31T07:41:20;22.85;;;3.85;;
74926;SDS011;63488;48.092;-1.640;2023-03-31T07:43:46;22.75;;;4.88;;
74926;SDS011;63488;48.092;-1.640;2023-03-31T07:46:19;20.50;;;4.43;;
74926;SDS011;63488;48.092;-1.640;2023-03-31T07:48:45;19.63;;;4.22;;
74926;SDS011;63488;48.092;-1.640;2023-03-31T07:51:12;22.27;;;4.20;;
74926;SDS011;63488;48.092;-1.640;2023-03-31T07:53:37;20.35;;;4.07;;
74926;SDS011;63488;48.092;-1.640;2023-03-31T07:56:03;17.77;;;3.90;;
74926;SDS011;63488;48.092;-1.640;2023-03-31T07:58:29;18.08;;;3.78;;
74926;SDS011;63488;48.092;-1.640;2023-03-31T08:00:55;16.55;;;4.05;;
74926;SDS011;63488;48.092;-1.640;2023-03-31T08:03:20;15.32;;;3.80;;
74926;SDS011;63488;48.092;-1.640;2023-03-31T08:05:46;22.33;;;4.30;;
74926;SDS011;63488;48.092;-1.640;2023-03-31T08:08:11;22.95;;;3.78;;
74926;SDS011;63488;48.092;-1.640;2023-03-31T08:10:36;21.70;;;4.38;;
74926;SDS011;63488;48.092;-1.640;2023-03-31T08:13:02;14.55;;;3.10;;
74926;SDS011;63488;48.092;-1.640;2023-03-31T08:15:27;19.63;;;3.40;;
74926;SDS011;63488;48.092;-1.640;2023-03-31T08:17:53;18.85;;;4.03;;
74926;SDS011;63488;48.092;-1.640;2023-03-31T08:20:19;12.52;;;3.10;;
74926;SDS011;63488;48.092;-1.640;2023-03-31T08:22:45;17.90;;;3.65;;
74926;SDS011;63488;48.092;-1.640;2023-03-31T08:25:10;17.98;;;3.30;;
74926;SDS011;63488;48.092;-1.640;2023-03-31T08:27:36;17.55;;;3.90;;
74926;SDS011;63488;48.092;-1.640;2023-03-31T08:30:02;16.65;;;3.15;;
74926;SDS011;63488;48.092;-1.640;2023-03-31T08:32:30;18.48;;;3.75;;
74926;SDS011;63488;48.092;-1.640;2023-03-31T08:34:55;16.25;;;3.25;;
74926;SDS011;63488;48.092;-1.640;2023-03-31T08:37:21;18.05;;;3.47;;
74926;SDS011;63488;48.092;-1.640;2023-03-31T08:39:46;16.13;;;3.33;;
74926;SDS011;63488;48.092;-1.640;2023-03-31T08:44:38;18.30;;;3.45;;
74926;SDS011;63488;48.092;-1.640;2023-03-31T08:47:06;17.03;;;3.73;;
74926;SDS011;63488;48.092;-1.640;2023-03-31T08:52:28;19.27;;;4.13;;
74926;SDS011;63488;48.092;-1.640;2023-03-31T08:54:57;22.08;;;3.40;;
74926;SDS011;63488;48.092;-1.640;2023-03-31T08:57:24;13.18;;;3.35;;
74926;SDS011;63488;48.092;-1.640;2023-03-31T08:59:51;17.92;;;3.10;;
74926;SDS011;63488;48.092;-1.640;2023-03-31T09:05:15;18.65;;;3.83;;
74926;SDS011;63488;48.092;-1.640;2023-03-31T09:15:11;16.50;;;2.92;;
74926;SDS011;63488;48.092;-1.640;2023-03-31T09:17:44;13.50;;;2.80;;
74926;SDS011;63488;48.092;-1.640;2023-03-31T09:22:41;18.00;;;2.92;;
74926;SDS011;63488;48.092;-1.640;2023-03-31T09:25:12;20.48;;;4.18;;
74926;SDS011;63488;48.092;-1.640;2023-03-31T09:27:39;17.80;;;3.58;;
74926;SDS011;63488;48.092;-1.640;2023-03-31T09:30:14;16.50;;;3.97;;
74926;SDS011;63488;48.092;-1.640;2023-03-31T09:32:40;15.88;;;3.65;;
74926;SDS011;63488;48.092;-1.640;2023-03-31T09:35:14;19.20;;;3.40;;
74926;SDS011;63488;48.092;-1.640;2023-03-31T09:37:40;15.95;;;3.20;;
74926;SDS011;63488;48.092;-1.640;2023-03-31T09:40:06;17.85;;;3.60;;
74926;SDS011;63488;48.092;-1.640;2023-03-31T09:42:32;18.67;;;3.63;;
74926;SDS011;63488;48.092;-1.640;2023-03-31T09:44:58;19.27;;;4.03;;
74926;SDS011;63488;48.092;-1.640;2023-03-31T09:47:34;18.88;;;3.38;;
74926;SDS011;63488;48.092;-1.640;2023-03-31T09:50:05;18.30;;;3.83;;
74926;SDS011;63488;48.092;-1.640;2023-03-31T09:52:32;20.50;;;4.30;;
74926;SDS011;63488;48.092;-1.640;2023-03-31T09:55:01;20.38;;;3.17;;
74926;SDS011;63488;48.092;-1.640;2023-03-31T09:57:31;17.50;;;3.42;;
74926;SDS011;63488;48.092;-1.640;2023-03-31T10:00:02;18.48;;;3.92;;
74926;SDS011;63488;48.092;-1.640;2023-03-31T10:02:33;18.13;;;2.95;;
74926;SDS011;63488;48.092;-1.640;2023-03-31T10:04:59;15.65;;;3.22;;
74926;SDS011;63488;48.092;-1.640;2023-03-31T10:07:25;15.50;;;3.85;;
74926;SDS011;63488;48.092;-1.640;2023-03-31T10:09:51;14.73;;;5.10;;
74926;SDS011;63488;48.092;-1.640;2023-03-31T10:12:18;12.30;;;3.05;;
74926;SDS011;63488;48.092;-1.640;2023-03-31T10:14:49;12.45;;;2.80;;
74926;SDS011;63488;48.092;-1.640;2023-03-31T10:17:16;17.48;;;3.33;;
74926;SDS011;63488;48.092;-1.640;2023-03-31T10:19:52;10.85;;;2.88;;
74926;SDS011;63488;48.092;-1.640;2023-03-31T10:24:48;11.23;;;2.60;;
74926;SDS011;63488;48.092;-1.640;2023-03-31T10:27:24;12.52;;;2.75;;
74926;SDS011;63488;48.092;-1.640;2023-03-31T10:29:51;11.85;;;2.95;;
74926;SDS011;63488;48.092;-1.640;2023-03-31T10:34:42;14.05;;;3.28;;
74926;SDS011;63488;48.092;-1.640;2023-03-31T10:37:09;16.13;;;2.95;;
74926;SDS011;63488;48.092;-1.640;2023-03-31T10:39:36;13.40;;;2.92;;
74926;SDS011;63488;48.092;-1.640;2023-03-31T10:42:03;12.02;;;2.60;;
74926;SDS011;63488;48.092;-1.640;2023-03-31T10:47:02;15.75;;;3.00;;
74926;SDS011;63488;48.092;-1.640;2023-03-31T10:49:28;15.68;;;3.20;;
74926;SDS011;63488;48.092;-1.640;2023-03-31T10:51:57;19.02;;;3.58;;
74926;SDS011;63488;48.092;-1.640;2023-03-31T10:54:23;12.82;;;2.88;;
74926;SDS011;63488;48.092;-1.640;2023-03-31T10:56:53;11.65;;;3.03;;
74926;SDS011;63488;48.092;-1.640;2023-03-31T11:02:14;12.55;;;2.20;;
74926;SDS011;63488;48.092;-1.640;2023-03-31T11:13:06;12.50;;;2.25;;
74926;SDS011;63488;48.092;-1.640;2023-03-31T11:33:29;10.13;;;2.38;;
74926;SDS011;63488;48.092;-1.640;2023-03-31T11:38:28;9.45;;;1.98;;
74926;SDS011;63488;48.092;-1.640;2023-03-31T11:41:04;8.07;;;1.98;;
74926;SDS011;63488;48.092;-1.640;2023-03-31T11:46:07;9.30;;;1.85;;
74926;SDS011;63488;48.092;-1.640;2023-03-31T11:51:10;9.60;;;1.77;;
74926;SDS011;63488;48.092;-1.640;2023-03-31T11:53:38;7.97;;;1.85;;
74926;SDS011;63488;48.092;-1.640;2023-03-31T11:56:03;10.48;;;2.42;;
74926;SDS011;63488;48.092;-1.640;2023-03-31T11:58:35;10.68;;;2.15;;
74926;SDS011;63488;48.092;-1.640;2023-03-31T12:03:45;10.18;;;1.83;;
74926;SDS011;63488;48.092;-1.640;2023-03-31T12:06:13;10.98;;;2.40;;
74926;SDS011;63488;48.092;-1.640;2023-03-31T12:08:57;8.65;;;2.13;;
74926;SDS011;63488;48.092;-1.640;2023-03-31T12:11:28;12.55;;;2.63;;
74926;SDS011;63488;48.092;-1.640;2023-03-31T12:14:10;15.40;;;3.25;;
74926;SDS011;63488;48.092;-1.640;2023-03-31T12:16:39;13.52;;;3.05;;
74926;SDS011;63488;48.092;-1.640;2023-03-31T12:21:46;16.13;;;2.95;;
74926;SDS011;63488;48.092;-1.640;2023-03-31T12:24:13;15.32;;;3.17;;
74926;SDS011;63488;48.092;-1.640;2023-03-31T12:29:13;16.75;;;3.33;;
74926;SDS011;63488;48.092;-1.640;2023-03-31T12:31:40;17.25;;;2.72;;
74926;SDS011;63488;48.092;-1.640;2023-03-31T12:34:09;11.95;;;2.15;;
74926;SDS011;63488;48.092;-1.640;2023-03-31T12:57:18;8.88;;;1.90;;
74926;SDS011;63488;48.092;-1.640;2023-03-31T12:59:44;11.77;;;2.50;;
74926;SDS011;63488;48.092;-1.640;2023-03-31T13:04:36;11.38;;;2.08;;
74926;SDS011;63488;48.092;-1.640;2023-03-31T13:07:02;13.15;;;2.72;;
74926;SDS011;63488;48.092;-1.640;2023-03-31T13:09:44;12.60;;;2.15;;
74926;SDS011;63488;48.092;-1.640;2023-03-31T13:12:14;14.00;;;2.83;;
74926;SDS011;63488;48.092;-1.640;2023-03-31T13:14:41;12.63;;;3.38;;
74926;SDS011;63488;48.092;-1.640;2023-03-31T13:19:36;12.25;;;2.58;;
74926;SDS011;63488;48.092;-1.640;2023-03-31T13:22:04;14.00;;;2.35;;
74926;SDS011;63488;48.092;-1.640;2023-03-31T13:24:30;10.27;;;2.15;;
74926;SDS011;63488;48.092;-1.640;2023-03-31T13:26:56;10.13;;;2.53;;
74926;SDS011;63488;48.092;-1.640;2023-03-31T13:29:24;7.78;;;2.00;;
74926;SDS011;63488;48.092;-1.640;2023-03-31T13:32:23;8.43;;;2.25;;
74926;SDS011;63488;48.092;-1.640;2023-03-31T13:34:43;8.48;;;1.95;;
74926;SDS011;63488;48.092;-1.640;2023-03-31T13:37:18;7.03;;;1.50;;
74926;SDS011;63488;48.092;-1.640;2023-03-31T13:47:45;6.22;;;1.55;;
74926;SDS011;63488;48.092;-1.640;2023-03-31T13:50:38;5.90;;;1.38;;
74926;SDS011;63488;48.092;-1.640;2023-03-31T13:55:58;6.50;;;1.35;;
74926;SDS011;63488;48.092;-1.640;2023-03-31T14:01:16;8.77;;;1.60;;
74926;SDS011;63488;48.092;-1.640;2023-03-31T14:06:32;7.93;;;1.90;;
74926;SDS011;63488;48.092;-1.640;2023-03-31T14:09:00;9.65;;;2.05;;
74926;SDS011;63488;48.092;-1.640;2023-03-31T14:11:29;11.13;;;2.92;;
74926;SDS011;63488;48.092;-1.640;2023-03-31T14:16:31;7.18;;;1.70;;
74926;SDS011;63488;48.092;-1.640;2023-03-31T14:24:24;10.15;;;2.08;;
74926;SDS011;63488;48.092;-1.640;2023-03-31T14:26:55;9.95;;;2.08;;
74926;SDS011;63488;48.092;-1.640;2023-03-31T14:30:24;5.65;;;1.40;;
74926;SDS011;63488;48.092;-1.640;2023-03-31T14:37:41;4.80;;;1.17;;
74926;SDS011;63488;48.092;-1.640;2023-03-31T14:40:09;7.47;;;1.95;;
74926;SDS011;63488;48.092;-1.640;2023-03-31T14:42:38;9.07;;;1.85;;
74926;SDS011;63488;48.092;-1.640;2023-03-31T14:45:05;7.32;;;1.70;;
74926;SDS011;63488;48.092;-1.640;2023-03-31T14:47:33;6.38;;;1.85;;
74926;SDS011;63488;48.092;-1.640;2023-03-31T14:50:33;7.90;;;2.05;;
74926;SDS011;63488;48.092;-1.640;2023-03-31T14:52:51;11.30;;;1.88;;
74926;SDS011;63488;48.092;-1.640;2023-03-31T14:55:16;10.65;;;2.22;;
74926;SDS011;63488;48.092;-1.640;2023-03-31T14:57:43;5.63;;;1.80;;
74926;SDS011;63488;48.092;-1.640;2023-03-31T15:00:11;6.60;;;2.15;;
74926;SDS011;63488;48.092;-1.640;2023-03-31T15:02:42;11.27;;;2.50;;
74926;SDS011;63488;48.092;-1.640;2023-03-31T15:05:09;10.45;;;2.33;;
74926;SDS011;63488;48.092;-1.640;2023-03-31T15:07:42;7.93;;;2.30;;
74926;SDS011;63488;48.092;-1.640;2023-03-31T15:10:12;7.93;;;1.48;;
74926;SDS011;63488;48.092;-1.640;2023-03-31T15:12:40;9.18;;;2.10;;
74926;SDS011;63488;48.092;-1.640;2023-03-31T15:15:06;10.20;;;1.55;;
74926;SDS011;63488;48.092;-1.640;2023-03-31T15:17:36;7.70;;;1.75;;
74926;SDS011;63488;48.092;-1.640;2023-03-31T15:20:17;7.63;;;1.77;;
74926;SDS011;63488;48.092;-1.640;2023-03-31T15:22:45;8.07;;;1.88;;
74926;SDS011;63488;48.092;-1.640;2023-03-31T15:25:15;7.38;;;2.40;;
74926;SDS011;63488;48.092;-1.640;2023-03-31T15:27:46;7.47;;;1.95;;
74926;SDS011;63488;48.092;-1.640;2023-03-31T15:30:15;9.80;;;1.90;;
74926;SDS011;63488;48.092;-1.640;2023-03-31T15:32:41;8.18;;;1.65;;
74926;SDS011;63488;48.092;-1.640;2023-03-31T15:35:06;7.32;;;1.75;;
74926;SDS011;63488;48.092;-1.640;2023-03-31T15:37:41;7.45;;;1.63;;
74926;SDS011;63488;48.092;-1.640;2023-03-31T15:40:23;7.75;;;1.95;;
74926;SDS011;63488;48.092;-1.640;2023-03-31T15:42:52;9.27;;;1.90;;
74926;SDS011;63488;48.092;-1.640;2023-03-31T15:47:48;9.55;;;1.55;;
74926;SDS011;63488;48.092;-1.640;2023-03-31T15:50:13;9.40;;;2.47;;
74926;SDS011;63488;48.092;-1.640;2023-03-31T15:52:47;7.40;;;1.65;;
74926;SDS011;63488;48.092;-1.640;2023-03-31T15:55:24;6.65;;;2.28;;
74926;SDS011;63488;48.092;-1.640;2023-03-31T15:57:51;9.48;;;1.85;;
74926;SDS011;63488;48.092;-1.640;2023-03-31T16:03:01;6.75;;;1.70;;
74926;SDS011;63488;48.092;-1.640;2023-03-31T16:05:36;9.30;;;2.28;;
74926;SDS011;63488;48.092;-1.640;2023-03-31T16:08:03;7.75;;;1.75;;
74926;SDS011;63488;48.092;-1.640;2023-03-31T16:10:30;9.65;;;2.10;;
74926;SDS011;63488;48.092;-1.640;2023-03-31T16:13:01;9.55;;;2.28;;
74926;SDS011;63488;48.092;-1.640;2023-03-31T16:15:34;6.78;;;1.70;;
74926;SDS011;63488;48.092;-1.640;2023-03-31T16:18:10;8.52;;;2.22;;
74926;SDS011;63488;48.092;-1.640;2023-03-31T16:20:39;8.73;;;2.35;;
74926;SDS011;63488;48.092;-1.640;2023-03-31T16:25:33;8.57;;;2.20;;
74926;SDS011;63488;48.092;-1.640;2023-03-31T16:28:03;8.82;;;2.20;;
74926;SDS011;63488;48.092;-1.640;2023-03-31T16:30:34;8.70;;;2.00;;
74926;SDS011;63488;48.092;-1.640;2023-03-31T16:33:07;13.98;;;2.28;;
74926;SDS011;63488;48.092;-1.640;2023-03-31T16:35:33;9.70;;;2.30;;
74926;SDS011;63488;48.092;-1.640;2023-03-31T16:38:00;9.48;;;2.20;;
74926;SDS011;63488;48.092;-1.640;2023-03-31T16:40:27;10.65;;;2.65;;
74926;SDS011;63488;48.092;-1.640;2023-03-31T16:43:05;8.48;;;2.17;;
74926;SDS011;63488;48.092;-1.640;2023-03-31T16:45:31;11.15;;;5.15;;
74926;SDS011;63488;48.092;-1.640;2023-03-31T16:47:56;10.32;;;2.55;;
74926;SDS011;63488;48.092;-1.640;2023-03-31T16:50:21;9.00;;;2.78;;
74926;SDS011;63488;48.092;-1.640;2023-03-31T16:52:47;9.20;;;2.35;;
74926;SDS011;63488;48.092;-1.640;2023-03-31T16:55:12;8.55;;;2.03;;
74926;SDS011;63488;48.092;-1.640;2023-03-31T16:57:37;10.77;;;2.10;;
74926;SDS011;63488;48.092;-1.640;2023-03-31T17:00:03;10.25;;;2.20;;
74926;SDS011;63488;48.092;-1.640;2023-03-31T17:02:28;8.60;;;2.72;;
74926;SDS011;63488;48.092;-1.640;2023-03-31T17:04:54;7.40;;;1.80;;
74926;SDS011;63488;48.092;-1.640;2023-03-31T17:07:19;11.63;;;2.90;;
74926;SDS011;63488;48.092;-1.640;2023-03-31T17:09:45;9.27;;;2.30;;
74926;SDS011;63488;48.092;-1.640;2023-03-31T17:12:11;5.55;;;1.55;;
74926;SDS011;63488;48.092;-1.640;2023-03-31T17:14:36;7.05;;;1.77;;
74926;SDS011;63488;48.092;-1.640;2023-03-31T17:17:01;7.70;;;1.98;;
74926;SDS011;63488;48.092;-1.640;2023-03-31T17:19:27;9.63;;;2.15;;
74926;SDS011;63488;48.092;-1.640;2023-03-31T17:21:52;5.90;;;1.55;;
74926;SDS011;63488;48.092;-1.640;2023-03-31T17:24:19;7.03;;;1.80;;
74926;SDS011;63488;48.092;-1.640;2023-03-31T17:26:44;6.20;;;1.85;;
74926;SDS011;63488;48.092;-1.640;2023-03-31T17:29:09;10.45;;;2.22;;
74926;SDS011;63488;48.092;-1.640;2023-03-31T17:31:35;7.82;;;1.65;;
74926;SDS011;63488;48.092;-1.640;2023-03-31T17:34:00;6.28;;;1.40;;